Time;durP1;ratioP1;P1;durP2;ratioP2;P2;SDS_P1;SDS_P2;PMS_P1;PMS_P2;Temp;Humidity;BMP_temperature;BMP_pressure;BME280_temperature;BME280_humidity;BME280_pressure;Samples;Min_cycle;Max_cycle;Signal;HPM_P1;HPM_P2
2021/12/04 00:01:10;;;;;;;20.13;15.63;;;21.90;32.60;;;;;;5064320;28;20144;-63
2021/12/04 00:03:40;;;;;;;20.80;15.40;;;21.90;32.60;;;;;;5061829;28;20055;-62
2021/12/04 00:06:27;;;;;;;20.88;15.20;;;21.90;32.60;;;;;;5069150;28;20058;-63
2021/12/04 00:09:01;;;;;;;24.20;16.52;;;21.90;32.60;;;;;;5065964;28;20070;-61
2021/12/04 00:11:28;;;;;;;21.08;15.20;;;21.90;32.60;;;;;;5063254;28;20044;-61
2021/12/04 00:13:55;;;;;;;23.17;15.23;;;21.90;32.60;;;;;;5064197;28;20542;-62
2021/12/04 00:16:22;;;;;;;25.98;16.20;;;21.90;32.60;;;;;;5048074;28;20048;-62
2021/12/04 00:18:50;;;;;;;20.60;14.73;;;21.90;32.60;;;;;;5047812;28;20048;-63
2021/12/04 00:21:17;;;;;;;20.77;14.90;;;21.90;32.60;;;;;;5044144;28;20566;-63
2021/12/04 00:23:44;;;;;;;21.23;14.98;;;22.00;32.60;;;;;;5060443;28;20776;-63
2021/12/04 00:26:11;;;;;;;23.40;16.17;;;22.00;32.60;;;;;;5066942;28;20113;-63
2021/12/04 00:28:39;;;;;;;21.35;15.73;;;21.90;32.60;;;;;;5067102;28;20048;-63
2021/12/04 00:31:09;;;;;;;22.35;15.73;;;21.90;32.60;;;;;;5063022;28;20040;-63
2021/12/04 00:33:39;;;;;;;21.98;15.27;;;21.90;32.60;;;;;;5048227;28;20561;-63
2021/12/04 00:36:11;;;;;;;26.23;16.55;;;21.90;32.60;;;;;;5046290;28;20742;-63
2021/12/04 00:49:46;;;;;;;19.35;14.77;;;21.90;32.70;;;;;;5067175;28;20056;-62
2021/12/04 00:52:16;;;;;;;20.50;14.40;;;21.90;33.20;;;;;;5060604;28;20130;-62
2021/12/04 00:54:45;;;;;;;21.05;15.30;;;21.90;32.70;;;;;;5065370;28;20441;-62
2021/12/04 00:57:13;;;;;;;23.05;16.23;;;21.80;32.70;;;;;;5065927;28;20048;-62
2021/12/04 00:59:40;;;;;;;21.35;14.52;;;21.80;32.70;;;;;;5065958;28;20226;-62
2021/12/04 01:02:07;;;;;;;20.75;14.48;;;21.80;32.70;;;;;;5059820;28;20105;-63
2021/12/04 01:04:35;;;;;;;21.13;15.48;;;21.80;32.70;;;;;;5044695;28;20071;-62
2021/12/04 01:07:02;;;;;;;23.33;16.10;;;21.80;32.70;;;;;;5046058;28;20060;-62
2021/12/04 01:09:29;;;;;;;20.92;14.63;;;21.80;32.70;;;;;;5044531;28;20052;-62
2021/12/04 01:11:57;;;;;;;20.50;14.55;;;21.80;32.70;;;;;;5049344;28;20507;-62
2021/12/04 01:14:27;;;;;;;20.33;14.60;;;21.80;32.70;;;;;;5066246;28;20075;-62
2021/12/04 01:16:55;;;;;;;18.17;14.02;;;21.80;33.30;;;;;;5061991;28;20052;-61
2021/12/04 01:19:22;;;;;;;23.00;15.02;;;21.80;32.80;;;;;;5070442;28;20451;-62
2021/12/04 01:21:50;;;;;;;20.90;14.68;;;21.80;32.80;;;;;;5058933;28;20512;-62
2021/12/04 01:24:18;;;;;;;20.25;13.80;;;21.80;32.80;;;;;;5051840;28;20052;-62
2021/12/04 01:26:46;;;;;;;19.08;13.52;;;21.80;32.80;;;;;;5046091;28;20141;-63
2021/12/04 01:29:14;;;;;;;19.33;14.02;;;21.80;32.80;;;;;;5045317;28;20541;-62
2021/12/04 01:31:43;;;;;;;18.88;14.65;;;21.70;32.80;;;;;;5047972;28;20568;-62
2021/12/04 01:34:10;;;;;;;19.00;13.65;;;21.80;32.80;;;;;;5060317;28;20459;-61
2021/12/04 01:36:37;;;;;;;18.20;12.55;;;21.80;32.80;;;;;;5065910;28;20060;-61
2021/12/04 01:39:06;;;;;;;21.40;14.15;;;21.80;32.80;;;;;;5065199;28;20076;-62
2021/12/04 01:41:34;;;;;;;21.92;14.50;;;21.80;32.80;;;;;;5065241;28;20135;-62
2021/12/04 01:44:04;;;;;;;19.38;14.18;;;21.70;32.70;;;;;;5056604;28;20048;-62
2021/12/04 01:46:33;;;;;;;22.23;14.77;;;21.80;32.80;;;;;;5063533;28;20091;-62
2021/12/04 01:49:01;;;;;;;19.83;13.93;;;21.80;32.80;;;;;;5063563;28;20188;-61
2021/12/04 01:51:28;;;;;;;21.73;14.95;;;21.80;32.80;;;;;;5060963;28;20051;-62
2021/12/04 01:53:55;;;;;;;17.75;13.30;;;21.80;32.80;;;;;;5058757;28;20079;-62
2021/12/04 01:56:23;;;;;;;21.63;13.63;;;21.80;32.80;;;;;;5045672;28;20399;-62
2021/12/04 01:58:53;;;;;;;21.55;14.57;;;21.80;32.80;;;;;;5044619;28;20052;-61
2021/12/04 02:01:21;;;;;;;19.20;13.75;;;21.80;32.90;;;;;;5045241;28;20568;-62
2021/12/04 02:03:48;;;;;;;17.83;13.43;;;21.70;32.80;;;;;;5055549;28;20148;-62
2021/12/04 02:06:15;;;;;;;19.40;13.57;;;21.80;32.80;;;;;;5064408;28;20090;-62
2021/12/04 02:08:43;;;;;;;19.33;13.20;;;21.80;32.90;;;;;;5064066;28;20096;-62
2021/12/04 02:11:11;;;;;;;18.83;13.77;;;21.80;32.80;;;;;;5062387;28;20056;-62
2021/12/04 02:13:38;;;;;;;19.10;12.93;;;21.80;32.90;;;;;;5055877;28;20052;-61
2021/12/04 02:16:17;;;;;;;16.83;12.52;;;21.80;32.80;;;;;;5063859;28;20101;-62
2021/12/04 02:18:45;;;;;;;17.80;12.13;;;21.80;32.90;;;;;;5064810;28;20616;-62
2021/12/04 02:21:14;;;;;;;19.25;12.60;;;21.80;32.80;;;;;;5059001;28;20052;-62
2021/12/04 02:23:41;;;;;;;16.20;11.60;;;21.80;32.80;;;;;;5052431;28;20051;-62
2021/12/04 02:26:08;;;;;;;17.33;12.38;;;21.70;32.80;;;;;;5044568;28;20051;-62
2021/12/04 02:28:36;;;;;;;16.85;12.27;;;21.70;32.80;;;;;;5044276;28;20123;-61
2021/12/04 02:31:03;;;;;;;17.25;12.95;;;21.70;32.80;;;;;;5041177;28;20114;-64
2021/12/04 02:33:30;;;;;;;19.55;12.85;;;21.70;32.90;;;;;;5045598;28;20056;-61
2021/12/04 02:35:58;;;;;;;15.60;11.63;;;21.70;32.80;;;;;;5043634;28;20053;-61
2021/12/04 02:38:26;;;;;;;18.10;12.93;;;21.70;32.80;;;;;;5044088;28;20557;-62
2021/12/04 02:40:56;;;;;;;15.55;11.20;;;21.70;32.90;;;;;;5042751;28;20044;-62
2021/12/04 02:43:23;;;;;;;17.38;13.18;;;21.70;32.80;;;;;;5057671;28;20699;-62
2021/12/04 02:45:50;;;;;;;15.15;11.73;;;21.70;32.90;;;;;;5064937;28;20495;-62
2021/12/04 02:48:19;;;;;;;16.67;12.40;;;21.70;32.90;;;;;;5063058;28;20416;-62
2021/12/04 02:50:47;;;;;;;15.82;11.15;;;21.70;32.90;;;;;;5063922;28;20048;-62
2021/12/04 02:53:14;;;;;;;17.00;12.05;;;21.70;32.90;;;;;;5056285;28;20052;-62
2021/12/04 02:55:43;;;;;;;16.67;11.40;;;21.70;32.90;;;;;;5044667;28;20053;-62
2021/12/04 02:58:12;;;;;;;16.25;11.40;;;21.70;32.90;;;;;;5043618;28;20292;-62
2021/12/04 03:00:47;;;;;;;14.88;10.57;;;21.60;32.80;;;;;;5042586;28;20084;-62
2021/12/04 03:03:17;;;;;;;13.98;10.68;;;21.60;32.90;;;;;;5041920;28;20056;-62
2021/12/04 03:05:48;;;;;;;16.70;12.35;;;21.60;32.90;;;;;;5043556;28;20090;-62
2021/12/04 03:08:16;;;;;;;14.07;11.13;;;21.60;32.90;;;;;;5044143;28;20126;-62
2021/12/04 03:10:46;;;;;;;16.08;11.90;;;21.60;32.90;;;;;;5043668;28;20238;-61
2021/12/04 03:13:17;;;;;;;15.95;11.05;;;21.60;32.90;;;;;;5038194;28;20406;-62
2021/12/04 03:15:49;;;;;;;14.98;10.52;;;21.60;32.90;;;;;;5064414;28;20056;-62
2021/12/04 03:18:16;;;;;;;14.43;10.77;;;21.60;32.90;;;;;;5063632;28;20052;-63
2021/12/04 03:20:45;;;;;;;16.42;11.57;;;21.60;32.90;;;;;;5063737;28;20543;-62
2021/12/04 03:23:28;;;;;;;15.70;10.82;;;21.60;32.90;;;;;;5050128;28;20455;-62
2021/12/04 03:25:58;;;;;;;13.65;10.27;;;21.60;32.90;;;;;;5027802;28;20130;-62
2021/12/04 03:28:26;;;;;;;14.30;10.40;;;21.60;32.90;;;;;;5025695;28;20111;-62
2021/12/04 03:31:05;;;;;;;13.52;9.80;;;21.60;32.90;;;;;;5026278;28;20494;-62
2021/12/04 03:41:54;;;;;;;13.15;9.88;;;21.60;32.90;;;;;;5061240;28;20094;-62
2021/12/04 03:44:21;;;;;;;16.25;10.25;;;21.60;32.90;;;;;;5024396;28;21184;-62
2021/12/04 03:46:48;;;;;;;14.50;10.02;;;21.60;32.90;;;;;;5027896;28;20140;-62
2021/12/04 03:49:16;;;;;;;13.70;8.88;;;21.60;32.90;;;;;;5027168;28;20075;-61
2021/12/04 03:51:43;;;;;;;14.30;9.70;;;21.60;32.90;;;;;;5034943;28;20105;-62
2021/12/04 03:54:10;;;;;;;12.25;9.68;;;21.60;33.00;;;;;;5044169;28;20493;-62
2021/12/04 03:56:37;;;;;;;12.63;8.88;;;21.60;32.90;;;;;;5067216;28;20106;-62
2021/12/04 03:59:04;;;;;;;13.02;8.95;;;21.60;32.90;;;;;;5067748;28;20135;-62
2021/12/04 04:01:31;;;;;;;14.40;9.10;;;21.60;32.90;;;;;;5062979;28;20083;-62
2021/12/04 04:03:59;;;;;;;10.57;8.48;;;21.60;32.90;;;;;;5051061;28;20048;-61
2021/12/04 04:06:26;;;;;;;13.95;8.98;;;21.60;32.90;;;;;;5047944;28;20463;-62
2021/12/04 04:08:53;;;;;;;13.40;9.32;;;21.60;32.90;;;;;;5046566;28;20632;-62
2021/12/04 04:11:20;;;;;;;13.85;9.15;;;21.60;32.90;;;;;;5044641;28;20134;-62
2021/12/04 04:13:48;;;;;;;11.75;8.45;;;21.60;32.90;;;;;;5061335;28;20096;-62
2021/12/04 04:16:15;;;;;;;10.95;7.88;;;21.60;32.90;;;;;;5046845;28;20126;-62
2021/12/04 04:18:42;;;;;;;11.45;7.65;;;21.60;32.90;;;;;;5042503;28;20476;-62
2021/12/04 04:21:10;;;;;;;12.23;8.75;;;21.60;32.90;;;;;;5029337;28;20049;-62
2021/12/04 04:23:37;;;;;;;11.10;8.25;;;21.60;32.90;;;;;;5045233;28;20052;-62
2021/12/04 04:26:05;;;;;;;11.32;8.40;;;21.60;32.90;;;;;;5046652;28;20052;-62
2021/12/04 04:28:32;;;;;;;10.45;7.85;;;21.60;32.90;;;;;;5047172;28;20058;-62
2021/12/04 04:31:00;;;;;;;11.80;8.32;;;21.60;32.90;;;;;;5045103;28;20074;-62
2021/12/04 04:33:30;;;;;;;10.15;7.95;;;21.50;32.90;;;;;;5063942;28;20136;-64
2021/12/04 04:38:51;;;;;;;11.73;7.75;;;21.50;32.90;;;;;;5045481;28;20535;-62
2021/12/04 04:58:17;;;;;;;10.88;7.82;;;21.50;32.90;;;;;;5058018;28;20060;-62
2021/12/04 05:14:42;;;;;;;8.35;6.82;;;21.50;32.90;;;;;;5063612;28;20087;-62
2021/12/04 05:17:14;;;;;;;8.82;6.55;;;21.50;32.90;;;;;;5065358;28;20051;-61
2021/12/04 05:19:52;;;;;;;10.27;7.00;;;21.50;32.90;;;;;;5065915;28;20109;-61
2021/12/04 05:22:20;;;;;;;9.82;6.80;;;21.50;32.90;;;;;;5052780;28;20156;-60
2021/12/04 05:24:48;;;;;;;7.93;5.88;;;21.40;32.80;;;;;;5048734;28;20105;-63
2021/12/04 05:27:17;;;;;;;8.38;5.97;;;21.50;32.90;;;;;;5044904;28;20052;-61
2021/12/04 05:29:44;;;;;;;7.35;6.07;;;21.50;32.90;;;;;;5045111;28;20118;-63
2021/12/04 05:32:12;;;;;;;9.65;6.25;;;21.50;32.90;;;;;;5039331;28;20040;-63
2021/12/04 05:34:39;;;;;;;10.02;7.35;;;21.50;32.90;;;;;;5063288;28;20048;-63
2021/12/04 05:37:06;;;;;;;9.77;6.80;;;21.50;32.90;;;;;;5065665;28;20129;-64
2021/12/04 05:39:34;;;;;;;9.73;6.82;;;21.40;32.90;;;;;;5065521;28;20068;-63
2021/12/04 05:42:01;;;;;;;8.63;6.28;;;21.50;32.90;;;;;;5054291;28;20080;-61
2021/12/04 05:44:30;;;;;;;8.40;6.28;;;21.50;32.90;;;;;;5062761;28;20769;-62
2021/12/04 05:47:02;;;;;;;8.13;6.13;;;21.50;32.90;;;;;;5043278;28;20497;-63
2021/12/04 05:49:50;;;;;;;8.02;6.38;;;21.50;32.90;;;;;;5043558;28;20087;-63
2021/12/04 05:52:37;;;;;;;8.27;6.00;;;21.50;32.90;;;;;;5049121;28;20432;-66
2021/12/04 05:55:15;;;;;;;7.80;5.75;;;21.50;32.90;;;;;;5064928;28;20509;-63
2021/12/04 05:57:43;;;;;;;8.68;6.20;;;21.50;32.90;;;;;;5064825;28;20509;-63
2021/12/04 06:00:15;;;;;;;8.07;5.65;;;21.50;32.90;;;;;;5064735;28;20093;-63
2021/12/04 06:02:43;;;;;;;8.02;6.07;;;21.50;32.90;;;;;;5045968;28;20497;-63
2021/12/04 06:05:11;;;;;;;7.53;5.80;;;21.50;32.90;;;;;;5045017;28;20059;-63
2021/12/04 06:07:39;;;;;;;9.23;6.38;;;21.50;32.90;;;;;;5040363;28;20571;-63
2021/12/04 06:10:07;;;;;;;8.05;6.25;;;21.50;32.80;;;;;;5040181;28;20539;-63
2021/12/04 06:12:34;;;;;;;8.30;6.50;;;21.50;32.70;;;;;;5021025;28;20053;-63
2021/12/04 06:15:03;;;;;;;8.82;6.47;;;21.40;32.50;;;;;;5063375;28;20075;-63
2021/12/04 06:17:31;;;;;;;8.05;6.50;;;21.40;32.40;;;;;;5028933;28;20096;-63
2021/12/04 06:22:45;;;;;;;9.10;6.78;;;21.40;32.20;;;;;;5046912;28;20059;-63
2021/12/04 06:25:19;;;;;;;10.23;7.45;;;21.40;32.00;;;;;;5042179;28;20140;-63
2021/12/04 06:27:46;;;;;;;10.40;7.55;;;21.40;32.30;;;;;;5043963;28;20563;-63
2021/12/04 06:30:16;;;;;;;9.35;7.13;;;21.50;31.50;;;;;;5043097;28;20481;-62
2021/12/04 06:32:48;;;;;;;9.70;7.32;;;21.50;31.30;;;;;;5039595;28;20143;-62
2021/12/04 06:35:17;;;;;;;9.98;8.23;;;21.60;31.70;;;;;;5041180;28;20131;-62
2021/12/04 06:37:44;;;;;;;11.98;8.02;;;21.60;30.90;;;;;;5044093;28;20055;-62
2021/12/04 06:40:12;;;;;;;11.02;8.38;;;21.70;30.80;;;;;;5044075;28;20139;-62
2021/12/04 06:42:41;;;;;;;10.80;7.97;;;21.70;30.70;;;;;;5044198;28;20452;-62
2021/12/04 06:45:09;;;;;;;11.18;9.07;;;21.80;30.60;;;;;;5046079;28;20052;-63
2021/12/04 06:47:38;;;;;;;12.68;9.02;;;21.80;30.40;;;;;;5044388;28;20559;-62
2021/12/04 06:50:17;;;;;;;10.77;8.32;;;21.90;30.30;;;;;;5044870;28;20098;-63
2021/12/04 06:52:47;;;;;;;12.48;8.73;;;21.90;30.20;;;;;;5052602;28;20102;-62
2021/12/04 06:55:16;;;;;;;10.77;8.48;;;22.00;30.20;;;;;;5045776;28;20136;-62
2021/12/04 06:57:44;;;;;;;11.45;8.68;;;22.00;30.00;;;;;;5044320;28;20056;-63
2021/12/04 07:00:12;;;;;;;11.23;8.63;;;22.10;30.00;;;;;;5043046;28;20049;-63
2021/12/04 07:02:39;;;;;;;11.10;8.65;;;22.10;29.90;;;;;;5028567;28;20716;-63
2021/12/04 07:05:07;;;;;;;11.70;9.35;;;22.20;29.80;;;;;;5068618;28;20512;-63
2021/12/04 07:07:35;;;;;;;12.35;9.00;;;22.20;29.70;;;;;;5066456;28;20083;-63
2021/12/04 07:10:03;;;;;;;11.10;8.98;;;22.30;29.70;;;;;;5067502;28;20857;-62
2021/12/04 07:12:31;;;;;;;12.75;8.82;;;22.40;29.70;;;;;;5054678;28;20484;-63
2021/12/04 07:14:58;;;;;;;11.50;9.85;;;22.40;29.60;;;;;;5048866;28;20444;-63
2021/12/04 07:17:25;;;;;;;11.60;9.20;;;22.40;29.50;;;;;;5050262;28;20131;-62
2021/12/04 07:19:52;;;;;;;14.27;10.52;;;22.50;29.50;;;;;;5047705;28;20088;-62
2021/12/04 07:22:20;;;;;;;14.90;10.70;;;22.50;29.30;;;;;;5050054;28;20469;-63
2021/12/04 07:24:47;;;;;;;13.30;10.18;;;22.60;29.30;;;;;;5060591;28;20106;-62
2021/12/04 07:27:14;;;;;;;13.40;10.25;;;22.70;29.30;;;;;;5047203;28;20080;-63
2021/12/04 07:29:41;;;;;;;13.02;10.52;;;22.70;29.30;;;;;;5047886;28;20080;-62
2021/12/04 07:32:09;;;;;;;15.27;11.00;;;22.80;29.20;;;;;;5048387;28;20082;-62
2021/12/04 07:34:36;;;;;;;13.48;10.88;;;22.80;29.10;;;;;;5065249;28;20040;-63
2021/12/04 07:37:03;;;;;;;14.23;11.43;;;22.90;29.10;;;;;;5045940;28;20131;-62
2021/12/04 07:39:31;;;;;;;18.48;13.65;;;22.90;29.00;;;;;;5046756;28;20132;-62
2021/12/04 07:41:58;;;;;;;19.45;13.40;;;23.00;29.00;;;;;;5043926;28;20052;-62
2021/12/04 07:44:26;;;;;;;20.58;14.40;;;23.00;28.90;;;;;;5059170;28;20478;-63
2021/12/04 07:46:53;;;;;;;19.60;14.07;;;23.00;28.90;;;;;;5048377;28;20084;-63
2021/12/04 07:49:20;;;;;;;22.52;14.40;;;23.10;29.00;;;;;;5050009;28;20453;-63
2021/12/04 07:51:48;;;;;;;22.30;14.77;;;23.20;28.90;;;;;;5048320;28;20425;-63
2021/12/04 07:54:16;;;;;;;22.58;15.27;;;23.20;28.90;;;;;;5063067;28;20072;-63
2021/12/04 07:56:44;;;;;;;23.38;15.63;;;23.20;28.80;;;;;;5066426;28;20514;-63
2021/12/04 07:59:11;;;;;;;23.98;15.50;;;23.30;28.70;;;;;;5068985;28;20055;-63
2021/12/04 08:01:40;;;;;;;22.98;15.98;;;23.30;28.60;;;;;;5062563;28;20091;-63
2021/12/04 08:04:07;;;;;;;24.60;16.95;;;23.40;28.60;;;;;;5019035;28;20106;-63
2021/12/04 08:06:35;;;;;;;24.80;16.80;;;23.40;28.60;;;;;;5026424;28;20103;-63
2021/12/04 08:09:03;;;;;;;23.60;16.98;;;23.50;28.60;;;;;;5026941;28;20049;-63
2021/12/04 08:11:31;;;;;;;24.75;17.10;;;23.50;28.50;;;;;;5032919;28;20463;-62
2021/12/04 08:13:58;;;;;;;26.73;17.23;;;23.50;28.50;;;;;;5058013;28;20556;-61
2021/12/04 08:16:26;;;;;;;24.88;16.73;;;23.60;28.50;;;;;;5067072;28;20075;-62
2021/12/04 08:18:54;;;;;;;24.30;15.80;;;23.60;28.40;;;;;;5067017;28;20132;-62
2021/12/04 08:21:21;;;;;;;24.60;17.05;;;23.70;28.40;;;;;;5063398;28;20044;-62
2021/12/04 08:23:49;;;;;;;23.90;16.95;;;23.70;28.40;;;;;;5061217;28;20569;-62
2021/12/04 08:26:19;;;;;;;26.02;18.17;;;23.70;28.40;;;;;;5068487;28;20048;-62
2021/12/04 08:28:46;;;;;;;24.67;17.23;;;23.70;28.40;;;;;;5067260;28;20048;-62
2021/12/04 08:31:15;;;;;;;25.23;17.75;;;23.80;28.30;;;;;;5063279;28;20450;-62
2021/12/04 08:33:42;;;;;;;23.45;17.52;;;23.80;28.30;;;;;;5059362;28;20401;-62
2021/12/04 08:36:10;;;;;;;24.90;17.75;;;23.80;28.30;;;;;;5046524;28;20056;-63
2021/12/04 08:38:38;;;;;;;25.98;18.02;;;23.90;28.30;;;;;;5047249;28;20464;-62
2021/12/04 08:41:05;;;;;;;24.23;17.95;;;23.90;28.20;;;;;;5042991;28;20052;-62
2021/12/04 08:43:33;;;;;;;27.60;19.67;;;23.90;28.20;;;;;;5056565;28;20048;-62
2021/12/04 08:46:01;;;;;;;25.23;18.60;;;24.00;28.20;;;;;;5066421;28;20052;-62
2021/12/04 08:48:31;;;;;;;23.52;17.58;;;24.00;28.20;;;;;;5066270;28;20086;-62
2021/12/04 08:50:59;;;;;;;24.63;18.13;;;24.00;28.10;;;;;;5064689;28;20125;-63
2021/12/04 08:53:27;;;;;;;25.75;18.50;;;24.10;28.10;;;;;;5057084;28;20130;-63
2021/12/04 08:55:55;;;;;;;27.80;19.80;;;24.10;28.50;;;;;;5057873;28;20110;-63
2021/12/04 08:58:22;;;;;;;28.35;20.60;;;24.10;28.10;;;;;;5045490;28;20051;-62
2021/12/04 09:00:54;;;;;;;29.92;20.35;;;24.10;28.00;;;;;;5045486;28;20084;-63
2021/12/04 09:03:25;;;;;;;28.85;19.83;;;24.20;28.00;;;;;;5056502;28;20056;-63
2021/12/04 09:05:53;;;;;;;26.55;19.52;;;24.20;28.00;;;;;;5066327;28;20497;-63
2021/12/04 09:08:23;;;;;;;26.83;18.77;;;24.20;28.00;;;;;;5066164;28;20584;-62
2021/12/04 09:10:53;;;;;;;26.58;19.17;;;24.30;28.00;;;;;;5064975;28;20052;-63
2021/12/04 09:13:22;;;;;;;24.90;18.77;;;24.30;27.90;;;;;;5058292;28;20155;-63
2021/12/04 09:15:50;;;;;;;27.05;19.98;;;24.30;27.90;;;;;;5065804;28;20079;-63
2021/12/04 09:18:17;;;;;;;26.10;19.30;;;24.30;27.90;;;;;;5048548;28;20110;-62
2021/12/04 09:20:47;;;;;;;26.55;19.98;;;24.30;27.90;;;;;;5046937;28;20082;-63
2021/12/04 09:23:17;;;;;;;28.23;20.48;;;24.40;27.90;;;;;;5046505;28;20480;-63
2021/12/04 09:25:49;;;;;;;;;;;24.40;27.80;;;;;;5045433;28;20045;-62
2021/12/04 09:28:20;;;;;;;26.23;19.92;;;24.40;27.80;;;;;;5046396;28;19924;-62
2021/12/04 09:31:20;;;;;;;28.45;19.88;;;24.40;27.80;;;;;;5045995;28;20080;-63
2021/12/04 10:01:53;;;;;;;25.52;18.65;;;24.70;27.60;;;;;;5061414;28;20072;-63
2021/12/04 10:04:32;;;;;;;24.25;19.00;;;24.70;27.50;;;;;;5062845;28;21232;-63
2021/12/04 10:13:09;;;;;;;23.25;18.13;;;24.70;27.40;;;;;;5046780;28;20271;-63
2021/12/04 10:15:52;;;;;;;23.98;17.77;;;24.70;27.40;;;;;;5064738;28;20131;-63
2021/12/04 10:24:57;;;;;;;21.73;16.05;;;24.80;27.30;;;;;;5064395;28;20134;-63
2021/12/04 10:35:18;;;;;;;19.70;15.10;;;24.90;27.10;;;;;;5065091;28;20505;-63
2021/12/04 10:37:49;;;;;;;18.13;13.63;;;24.90;27.10;;;;;;5063393;28;20497;-63
2021/12/04 10:40:17;;;;;;;17.48;14.00;;;24.90;27.10;;;;;;5062775;28;20059;-63
2021/12/04 10:42:54;;;;;;;18.55;13.73;;;24.90;27.00;;;;;;5046916;28;20056;-63
2021/12/04 10:45:33;;;;;;;19.67;14.30;;;24.90;27.00;;;;;;5064613;28;20087;-63
2021/12/04 10:48:05;;;;;;;18.50;14.40;;;25.00;27.00;;;;;;5065755;28;20044;-63
2021/12/04 10:50:52;;;;;;;15.35;12.18;;;24.90;26.90;;;;;;5063998;28;20084;-63
2021/12/04 10:53:26;;;;;;;16.00;12.60;;;25.00;26.90;;;;;;5049303;28;20076;-63
2021/12/04 10:56:23;;;;;;;18.25;12.52;;;25.00;26.90;;;;;;5043511;28;20159;-62
2021/12/04 11:01:45;;;;;;;14.43;11.05;;;25.00;26.70;;;;;;5042262;28;20851;-63
2021/12/04 11:04:30;;;;;;;14.93;11.15;;;25.10;26.70;;;;;;5056888;28;20047;-63
2021/12/04 11:27:19;;;;;;;12.90;9.27;;;25.20;26.40;;;;;;5043735;28;20078;-62
2021/12/04 11:38:40;;;;;;;11.45;9.15;;;25.30;26.30;;;;;;5063690;28;20059;-62
2021/12/04 11:40:58;;;;;;;9.70;8.02;;;25.30;26.20;;;;;;5062624;28;20052;-62
2021/12/04 11:43:41;;;;;;;9.65;8.50;;;25.30;26.20;;;;;;5045568;28;20052;-62
2021/12/04 11:46:24;;;;;;;9.43;8.10;;;25.40;26.20;;;;;;5043884;28;20478;-62
2021/12/04 11:48:52;;;;;;;11.00;7.93;;;25.40;26.10;;;;;;5044938;28;20048;-62
2021/12/04 11:51:23;;;;;;;9.10;7.63;;;25.40;26.10;;;;;;5045001;28;20079;-62
2021/12/04 11:53:52;;;;;;;10.40;8.20;;;25.40;26.10;;;;;;5023888;28;20486;-62
2021/12/04 11:56:23;;;;;;;10.65;7.50;;;25.40;26.10;;;;;;5031386;28;20080;-62
2021/12/04 11:58:51;;;;;;;8.48;7.05;;;25.40;26.00;;;;;;5027425;28;20049;-62
2021/12/04 12:01:33;;;;;;;8.80;7.18;;;25.40;26.00;;;;;;5032257;28;20139;-62
2021/12/04 12:04:10;;;;;;;8.20;6.50;;;25.40;26.00;;;;;;5043073;28;20154;-62
2021/12/04 12:06:40;;;;;;;8.70;6.53;;;25.40;26.00;;;;;;5042149;28;20075;-62
2021/12/04 12:09:18;;;;;;;8.10;6.70;;;25.40;25.90;;;;;;5027592;28;20103;-62
2021/12/04 12:12:02;;;;;;;9.40;6.70;;;25.50;26.00;;;;;;5034495;28;20079;-62
2021/12/04 12:14:44;;;;;;;7.28;5.90;;;25.50;25.90;;;;;;5048863;28;20129;-62
2021/12/04 12:17:13;;;;;;;8.30;6.80;;;25.50;25.90;;;;;;5045042;28;20181;-62
2021/12/04 12:19:52;;;;;;;7.28;6.45;;;25.50;25.90;;;;;;5047195;28;20086;-62
2021/12/04 12:22:36;;;;;;;6.18;5.55;;;25.50;25.90;;;;;;5043221;28;20408;-62
2021/12/04 12:25:33;;;;;;;7.07;6.03;;;25.50;25.90;;;;;;5067204;28;20083;-62
2021/12/04 12:33:55;;;;;;;;;;;25.50;25.80;;;;;;5052130;28;20086;-62
2021/12/04 12:36:28;;;;;;;6.80;5.00;;;25.40;25.70;;;;;;5044734;28;20307;-62
2021/12/04 12:39:15;;;;;;;5.90;5.30;;;25.40;25.70;;;;;;5046384;28;20049;-62
2021/12/04 12:41:49;;;;;;;6.38;5.45;;;25.40;25.70;;;;;;5047372;28;20044;-62
2021/12/04 12:44:28;;;;;;;5.40;4.75;;;25.40;25.60;;;;;;5061581;28;20458;-62
2021/12/04 12:47:02;;;;;;;5.90;5.30;;;25.40;25.60;;;;;;5065868;28;20051;-61
2021/12/04 12:49:39;;;;;;;5.22;4.43;;;25.40;25.60;;;;;;5066173;28;20071;-62
2021/12/04 12:52:19;;;;;;;5.97;4.93;;;25.40;25.60;;;;;;5059616;28;20079;-62
2021/12/04 12:55:04;;;;;;;5.95;4.93;;;25.40;25.60;;;;;;5047034;28;20087;-62
2021/12/04 12:57:43;;;;;;;5.45;4.13;;;25.40;25.50;;;;;;5047665;28;20373;-62
2021/12/04 13:11:58;;;;;;;5.25;4.22;;;25.40;25.40;;;;;;5060043;28;20047;-62
2021/12/04 13:14:36;;;;;;;4.53;4.10;;;25.40;25.40;;;;;;5044962;28;20447;-62
2021/12/04 13:17:13;;;;;;;4.78;4.28;;;25.40;25.40;;;;;;5045464;28;20135;-62
2021/12/04 13:19:44;;;;;;;4.22;3.83;;;25.40;25.40;;;;;;5045616;28;20088;-62
2021/12/04 13:22:15;;;;;;;4.03;3.63;;;25.40;25.30;;;;;;5049616;28;20070;-62
2021/12/04 13:24:42;;;;;;;4.93;4.20;;;25.40;25.30;;;;;;5064621;28;20087;-62
2021/12/04 13:29:50;;;;;;;4.07;3.67;;;25.40;25.30;;;;;;5066065;28;20103;-62
2021/12/04 13:32:26;;;;;;;3.97;3.55;;;25.40;25.20;;;;;;5056815;28;21172;-62
2021/12/04 13:34:53;;;;;;;5.25;3.95;;;25.40;25.20;;;;;;5065388;28;20551;-62
2021/12/04 13:37:27;;;;;;;3.75;3.30;;;25.40;25.20;;;;;;5050323;28;20070;-62
2021/12/04 13:40:03;;;;;;;5.72;3.47;;;25.40;25.20;;;;;;5046589;28;20739;-62
2021/12/04 13:42:33;;;;;;;4.75;3.58;;;25.40;25.20;;;;;;5044045;28;20761;-62
2021/12/04 13:45:05;;;;;;;4.45;3.42;;;25.30;25.10;;;;;;5064668;28;20497;-62
2021/12/04 13:47:32;;;;;;;4.15;3.38;;;25.30;25.10;;;;;;5065347;28;20048;-62
2021/12/04 13:50:08;;;;;;;4.18;3.28;;;25.30;25.10;;;;;;5065221;28;20109;-62
2021/12/04 13:52:35;;;;;;;4.75;3.60;;;25.30;25.10;;;;;;5055340;28;20133;-62
2021/12/04 13:55:11;;;;;;;4.13;3.35;;;25.30;25.10;;;;;;5064823;28;20680;-62
2021/12/04 13:57:42;;;;;;;4.20;3.42;;;25.30;25.10;;;;;;5065281;28;20141;-63
2021/12/04 14:00:12;;;;;;;4.47;3.78;;;25.20;25.00;;;;;;5062911;28;20048;-63
2021/12/04 14:02:40;;;;;;;3.55;2.80;;;25.20;25.00;;;;;;5057969;28;20647;-62
2021/12/04 14:05:12;;;;;;;4.10;3.70;;;25.20;25.00;;;;;;5066029;28;20878;-63
2021/12/04 14:07:47;;;;;;;3.33;3.03;;;25.20;24.90;;;;;;5059499;28;20470;-62
2021/12/04 14:10:22;;;;;;;3.45;3.05;;;25.20;24.90;;;;;;5027463;28;20450;-63
2021/12/04 14:12:50;;;;;;;3.33;3.03;;;25.20;25.00;;;;;;5037229;28;20044;-62
2021/12/04 14:15:21;;;;;;;4.25;3.38;;;25.10;24.90;;;;;;5035140;28;20132;-62
2021/12/04 14:17:50;;;;;;;3.47;3.17;;;25.10;24.90;;;;;;5031087;28;20111;-63
2021/12/04 14:20:23;;;;;;;2.97;2.55;;;25.10;24.90;;;;;;5025453;28;20182;-63
2021/12/04 14:22:52;;;;;;;3.83;3.17;;;25.10;24.90;;;;;;5029404;28;20044;-63
2021/12/04 14:25:23;;;;;;;4.55;3.63;;;25.10;24.90;;;;;;5042530;28;20057;-63
2021/12/04 14:27:51;;;;;;;3.35;2.80;;;25.10;24.90;;;;;;5044989;28;20049;-62
2021/12/04 14:30:22;;;;;;;3.03;2.72;;;25.10;24.90;;;;;;5044311;28;20568;-63
2021/12/04 14:32:53;;;;;;;3.60;3.28;;;25.10;25.00;;;;;;5050066;28;20561;-63
2021/12/04 14:35:31;;;;;;;3.38;3.08;;;25.00;24.90;;;;;;5064439;28;20050;-63
2021/12/04 14:38:00;;;;;;;3.50;3.00;;;25.00;24.90;;;;;;5064510;28;20055;-63
2021/12/04 14:40:34;;;;;;;3.38;2.80;;;25.00;24.90;;;;;;5065368;28;20044;-63
2021/12/04 14:43:05;;;;;;;2.38;2.17;;;25.00;24.90;;;;;;5046723;28;20056;-63
2021/12/04 14:45:35;;;;;;;3.50;2.78;;;24.90;24.90;;;;;;5063189;28;20493;-63
2021/12/04 14:48:07;;;;;;;3.15;2.85;;;25.00;25.00;;;;;;5063350;28;20493;-63
2021/12/04 14:50:39;;;;;;;3.05;2.70;;;25.00;25.00;;;;;;5068984;28;20091;-63
2021/12/04 14:53:09;;;;;;;3.78;3.00;;;24.90;24.90;;;;;;5053327;28;20135;-62
2021/12/04 14:55:40;;;;;;;3.15;2.85;;;24.90;25.00;;;;;;5066710;28;20087;-63
2021/12/04 14:58:13;;;;;;;3.85;3.47;;;24.90;25.00;;;;;;5060814;28;20127;-62
2021/12/04 15:00:45;;;;;;;3.28;2.97;;;24.90;25.00;;;;;;5065446;28;20083;-63
2021/12/04 15:03:16;;;;;;;3.10;2.80;;;24.90;25.00;;;;;;5049450;28;20045;-63
2021/12/04 15:05:48;;;;;;;2.17;2.05;;;24.90;25.00;;;;;;5046772;28;20048;-63
2021/12/04 15:08:26;;;;;;;3.08;2.80;;;24.90;25.00;;;;;;5044966;28;20048;-62
2021/12/04 15:11:09;;;;;;;3.60;3.17;;;24.80;25.00;;;;;;5042917;28;20136;-63
2021/12/04 15:13:53;;;;;;;3.20;2.85;;;24.80;25.10;;;;;;5043310;28;21060;-63
2021/12/04 15:19:18;;;;;;;;;;;24.80;25.10;;;;;;5041417;28;20072;-62
2021/12/04 15:21:52;;;;;;;4.90;4.10;;;24.70;25.10;;;;;;5044082;28;19959;-63
2021/12/04 15:24:25;;;;;;;3.67;3.20;;;24.70;25.10;;;;;;5058108;28;20340;-62
2021/12/04 15:26:58;;;;;;;4.85;3.80;;;24.70;25.10;;;;;;5067465;28;20098;-62
2021/12/04 15:29:30;;;;;;;5.03;3.95;;;24.70;25.20;;;;;;5068430;28;20044;-62
2021/12/04 15:32:05;;;;;;;5.00;4.05;;;24.70;25.60;;;;;;5059551;28;20048;-63